Jamie Marie — WDE7178 — position and weather

sailwx.info

Track history (hours):
 
Tides and Currents Weather Stations Pressure Air Temp Water Temp Dewpoint Dewpoint Depression Visibility Wind Speed Wind Dir Waves Ship Positions

Jamie Marie

Owner: Jamie Marie, Inc., Aberdeen, WA. More information available from US FCC via Universal Licensing System and Coast Guard Vessel Documentation Center.

Last reported at 2016-May-27 09:33 UTC. Time now 2016-May-27 10:22 UTC.
Position N 46°54' W 124°06'.

Length 30 m.

Type: Fishing. MMSI: 366425240.

Date/timePositionNaut miles runAvg speedWind from/ knotsBaromVisibWave heightAir tempDewpointWater temp
2016-May-27 09:33N 46°54' W 124°06'0 0.0
2016-May-27 08:33N 46°54' W 124°06'0 0.0
2016-May-27 07:33N 46°54' W 124°06'0 0.0
2016-May-27 06:33N 46°54' W 124°06'0 0.0
2016-May-27 05:33N 46°54' W 124°06'0 0.0
2016-May-27 04:33N 46°54' W 124°06'0 0.0
2016-May-27 03:33N 46°54' W 124°06'0 0.0
2016-May-27 02:31N 46°54' W 124°06'0 0.0
2016-May-27 01:33N 46°54' W 124°06'0 0.0
2016-May-27 00:33N 46°54' W 124°06'0 0.0
2016-May-26 23:33N 46°54' W 124°06'0 0.0
2016-May-26 22:33N 46°54' W 124°06'0 0.0
2016-May-26 21:33N 46°54' W 124°06'0 0.0
2016-May-26 20:33N 46°54' W 124°06'0 0.0
2016-May-26 19:32N 46°54' W 124°06'0 0.0
2016-May-26 18:34N 46°54' W 124°06'0 0.0
2016-May-26 17:32N 46°54' W 124°06'0 0.0
2016-May-26 16:33N 46°54' W 124°06'0 0.0
2016-May-26 15:33N 46°54' W 124°06'0 0.0
2016-May-26 14:33N 46°54' W 124°06'0 0.0
2016-May-26 13:33N 46°54' W 124°06'0 0.0
2016-May-26 12:33N 46°54' W 124°06'0 0.0
2016-May-26 11:33N 46°54' W 124°06'0 0.0
2016-May-26 10:33N 46°54' W 124°06'0 0.0
2016-May-26 09:33N 46°54' W 124°06'0 0.0
2016-May-26 08:33N 46°54' W 124°06'0 0.0
2016-May-26 07:33N 46°54' W 124°06'0 0.0
2016-May-26 06:33N 46°54' W 124°06'0 0.0
2016-May-26 05:33N 46°54' W 124°06'0 0.0
2016-May-26 04:33N 46°54' W 124°06'0 0.0
2016-May-26 03:33N 46°54' W 124°06'0 0.0
2016-May-26 02:33N 46°54' W 124°06'0 0.0
2016-May-26 01:33N 46°54' W 124°06'0 0.0
2016-May-26 00:33N 46°54' W 124°06'0 0.0
2016-May-25 23:33N 46°54' W 124°06'0 0.0
2016-May-25 22:33N 46°54' W 124°06'0 0.0
2016-May-25 21:33N 46°54' W 124°06'0 0.0
2016-May-25 20:33N 46°54' W 124°06'0 0.0
2016-May-25 19:33N 46°54' W 124°06'0 0.0
2016-May-25 18:33N 46°54' W 124°06'0 0.0
2016-May-25 17:33N 46°54' W 124°06'0 0.0
2016-May-25 16:33N 46°54' W 124°06'0 0.0
2016-May-25 15:33N 46°54' W 124°06'0 0.0
2016-May-25 14:33N 46°54' W 124°06'0 0.0
2016-May-25 13:33N 46°54' W 124°06'0 0.0
2016-May-25 12:33N 46°54' W 124°06'0 0.0
2016-May-25 11:33N 46°54' W 124°06'0 0.0
2016-May-25 10:33N 46°54' W 124°06'0 0.0
2016-May-25 09:33N 46°54' W 124°06'0 0.0
2016-May-25 08:33N 46°54' W 124°06'0 0.0
2016-May-25 07:33N 46°54' W 124°06'0 0.0
2016-May-25 06:33N 46°54' W 124°06'0 0.0
2016-May-25 05:33N 46°54' W 124°06'0 0.0
2016-May-25 04:33N 46°54' W 124°06'0 0.0
2016-May-25 03:33N 46°54' W 124°06'0 0.0
2016-May-25 02:33N 46°54' W 124°06'0 0.0
2016-May-25 01:33N 46°54' W 124°06'0 0.0
2016-May-25 00:33N 46°54' W 124°06'0 0.0
2016-May-24 23:33N 46°54' W 124°06'0 0.0
2016-May-24 22:33N 46°54' W 124°06'0 0.0
2016-May-24 18:33N 46°54' W 124°06'0 0.0
2016-May-24 17:33N 46°54' W 124°06'0 0.0
2016-May-24 16:33N 46°54' W 124°06'0 0.0
2016-May-24 15:33N 46°54' W 124°06'0 0.0
2016-May-24 14:33N 46°54' W 124°06'0 0.0
2016-May-24 13:33N 46°54' W 124°06'0 0.0
2016-May-24 12:33N 46°54' W 124°06'0 0.0
2016-May-24 11:34N 46°54' W 124°06'0 0.2
2016-May-24 10:33N 46°55' W 124°06'3 3.5
2016-May-24 09:33N 46°55' W 124°12'1 0.1
2016-May-23 19:18N 46°56' W 124°11'0 0.0
2016-May-23 15:15N 46°56' W 124°11'0 0.0
2016-May-23 14:30N 46°56' W 124°11'0 0.0
2016-May-23 11:09N 46°56' W 124°11'0 0.0
2016-May-23 10:33N 46°56' W 124°11'0 0.0
2016-May-23 09:33N 46°56' W 124°11'3 2.6
2016-May-23 08:33N 46°56' W 124°14'7 6.8
2016-May-23 07:34N 46°55' W 124°24'6 6.2
2016-May-23 06:33N 46°55' W 124°33'7 7.0
2016-May-23 05:33N 46°55' W 124°44'7 6.8
2016-May-23 04:33N 46°55' W 124°54'2 1.7
2016-May-23 03:29N 46°53' W 124°56'5 2.7
2016-May-23 01:33N 46°48' W 124°54'2 2.0
2016-May-23 00:33N 46°50' W 124°55'3 2.8
2016-May-22 23:33N 46°53' W 124°56'2 2.5
2016-May-22 22:33N 46°55' W 124°56'4 3.5
2016-May-22 21:32N 46°52' W 124°55'2 1.9
2016-May-22 20:27N 46°50' W 124°55'2 2.6
2016-May-22 19:33N 46°48' W 124°54'3 2.6
2016-May-22 18:33N 46°46' W 124°52'1 0.9
2016-May-22 17:33N 46°46' W 124°53'3 2.8
2016-May-22 16:33N 46°49' W 124°54'3 2.7
2016-May-22 15:33N 46°51' W 124°55'3 3.0
2016-May-22 14:33N 46°54' W 124°56'4 3.9
2016-May-22 13:33N 46°50' W 124°55'8 7.5
2016-May-22 12:33N 46°44' W 124°48'0 0.0
2016-May-22 11:34N 46°44' W 124°48'7 7.3
2016-May-22 10:33N 46°46' W 124°38'8 7.9
2016-May-22 09:33N 46°49' W 124°27'8 7.9
2016-May-22 08:33N 46°53' W 124°17'7 7.5
2016-May-22 07:33N 46°55' W 124°06'0 0.3
2016-May-22 06:33N 46°54' W 124°06'0 0.0
2016-May-22 05:33N 46°54' W 124°06'0 0.0
2016-May-22 04:33N 46°54' W 124°06'0 0.0
2016-May-22 03:33N 46°54' W 124°06'0 0.0
2016-May-22 02:33N 46°54' W 124°06'0 0.0
2016-May-22 01:33N 46°54' W 124°06'0 0.0
2016-May-22 00:33N 46°54' W 124°06'0 0.0
2016-May-21 23:33N 46°54' W 124°06'0 0.0
2016-May-21 22:33N 46°54' W 124°06'0 0.0
2016-May-21 21:33N 46°54' W 124°06'0 0.0
2016-May-21 20:33N 46°54' W 124°06'0 0.0
2016-May-21 19:33N 46°54' W 124°06'0 0.0
2016-May-21 18:28N 46°54' W 124°06'0 0.0
2016-May-21 17:33N 46°54' W 124°06'0 0.0
2016-May-21 16:33N 46°54' W 124°06'0 0.0
2016-May-21 15:33N 46°54' W 124°06'0 0.0
2016-May-21 14:33N 46°54' W 124°06'0 0.0
2016-May-21 13:33N 46°54' W 124°06'0 0.0
2016-May-21 12:33N 46°54' W 124°06'0 0.0
2016-May-21 11:33N 46°54' W 124°06'0 0.0
2016-May-21 10:33N 46°54' W 124°06'0 0.0
2016-May-21 09:33N 46°54' W 124°06'0 0.0
2016-May-21 08:33N 46°54' W 124°06'0 0.0
2016-May-21 07:33N 46°54' W 124°06'0 0.0
2016-May-21 06:33N 46°54' W 124°06'0 0.0
2016-May-21 05:29N 46°54' W 124°06'0 0.0
2016-May-21 04:33N 46°54' W 124°06'0 0.0
2016-May-21 03:33N 46°54' W 124°06'0 0.0
2016-May-21 02:33N 46°54' W 124°06'0 0.0
2016-May-21 01:33N 46°54' W 124°06'0 0.0
2016-May-21 00:33N 46°54' W 124°06'0 0.0
2016-May-20 23:33N 46°54' W 124°06'0 0.0
2016-May-20 22:33N 46°54' W 124°06'0 0.0
2016-May-20 21:33N 46°54' W 124°06'0 0.0
2016-May-20 16:33N 46°54' W 124°06'0 0.0
2016-May-20 15:33N 46°54' W 124°06'0 0.0
2016-May-20 14:33N 46°54' W 124°06'0 0.0
2016-May-20 13:33N 46°54' W 124°06'0 0.0
2016-May-20 12:33N 46°54' W 124°06'0 0.0
2016-May-20 11:33N 46°54' W 124°06'0 0.0
2016-May-20 10:33N 46°54' W 124°06'0 0.0
2016-May-20 09:33N 46°54' W 124°06'0 0.0
2016-May-20 08:33N 46°54' W 124°06'0 0.0
2016-May-20 07:33N 46°54' W 124°06'0 0.0
2016-May-20 06:34N 46°54' W 124°06'0 0.0
2016-May-20 05:33N 46°54' W 124°06'0 0.0
2016-May-20 04:33N 46°54' W 124°06'0 0.0
2016-May-20 03:33N 46°54' W 124°06'0 0.0
2016-May-20 02:31N 46°54' W 124°06'0 0.0
2016-May-20 01:33N 46°54' W 124°06'0 0.0
2016-May-20 00:33N 46°54' W 124°06'0 0.0
2016-May-19 23:33N 46°54' W 124°06'0 0.0
2016-May-19 13:33N 46°54' W 124°06'0 0.0
2016-May-19 12:33N 46°54' W 124°06'0 0.0
2016-May-19 11:33N 46°54' W 124°06'0 0.0
2016-May-19 10:33N 46°54' W 124°06'0 0.0
2016-May-19 09:33N 46°54' W 124°06'0 0.0
2016-May-19 08:33N 46°54' W 124°06'0 0.0
2016-May-19 07:33N 46°54' W 124°06'0 0.0
2016-May-19 06:33N 46°54' W 124°06'0 0.0
2016-May-19 05:34N 46°54' W 124°06'0 0.0
2016-May-19 04:33N 46°54' W 124°06'0 0.0
2016-May-19 03:34N 46°54' W 124°06'0 0.0
2016-May-19 02:33N 46°54' W 124°06'0 0.0
2016-May-19 01:33N 46°54' W 124°06'0 0.0
2016-May-19 00:18N 46°54' W 124°06'0 0.0
2016-May-18 23:33N 46°54' W 124°06'0 0.0
2016-May-18 22:33N 46°54' W 124°06'0 0.0
2016-May-18 21:33N 46°54' W 124°06'0 0.0
2016-May-18 20:33N 46°54' W 124°06'0 0.0
2016-May-18 19:33N 46°54' W 124°06'0 0.2
2016-May-18 18:33N 46°55' W 124°07'0 0.0
2016-May-18 17:33N 46°55' W 124°07'0 0.2
2016-May-18 16:33N 46°54' W 124°06'0 0.0
2016-May-18 15:33N 46°54' W 124°06'0 0.0
2016-May-18 14:33N 46°54' W 124°06'0 0.0
2016-May-18 13:33N 46°54' W 124°06'0 0.0
2016-May-18 12:33N 46°54' W 124°06'0 0.0
2016-May-18 11:33N 46°54' W 124°06'0 0.0
2016-May-18 10:33N 46°54' W 124°06'0 0.0
2016-May-18 09:33N 46°54' W 124°06'0 0.0
2016-May-18 08:32N 46°54' W 124°06'0 0.0
2016-May-18 07:33N 46°54' W 124°06'0 0.0
2016-May-18 06:33N 46°54' W 124°06'0 0.0
2016-May-18 05:33N 46°54' W 124°06'0 0.0
2016-May-18 04:33N 46°54' W 124°06'0 0.0
2016-May-18 03:33N 46°54' W 124°06'0 0.0
2016-May-18 02:33N 46°54' W 124°06'0 0.0
2016-May-18 01:33N 46°54' W 124°06'0 0.0
2016-May-18 00:33N 46°54' W 124°06'0 0.0
2016-May-17 23:04N 46°54' W 124°06'0 0.0
2016-May-17 18:24N 46°54' W 124°06'0 0.1
2016-May-17 17:33N 46°54' W 124°06'0 0.0
2016-May-17 16:33N 46°54' W 124°06'0 0.0
2016-May-17 15:33N 46°54' W 124°06'0 0.0
2016-May-17 14:33N 46°54' W 124°06'0 0.0
2016-May-17 13:33N 46°54' W 124°06'0 0.0
2016-May-17 12:33N 46°54' W 124°06'0 0.0
2016-May-17 11:33N 46°54' W 124°06'0 0.0
2016-May-17 10:33N 46°54' W 124°06'  
Track history (hours):
 
Tides and Currents Weather Stations Pressure Air Temp Water Temp Dewpoint Dewpoint Depression Visibility Wind Speed Wind Dir Waves Ship Positions

Jamie Marie

Owner: Jamie Marie, Inc., Aberdeen, WA. More information available from US FCC via Universal Licensing System and Coast Guard Vessel Documentation Center.

Last reported at 2016-May-27 09:33 UTC. Time now 2016-May-27 10:22 UTC.
Position N 46°54' W 124°06'.

Length 30 m.

Type: Fishing. MMSI: 366425240.

Date/timePositionNaut miles runAvg speedWind from/ knotsBaromVisibWave heightAir tempDewpointWater temp
2016-May-27 09:33N 46°54' W 124°06'0 0.0
2016-May-27 08:33N 46°54' W 124°06'0 0.0
2016-May-27 07:33N 46°54' W 124°06'0 0.0
2016-May-27 06:33N 46°54' W 124°06'0 0.0
2016-May-27 05:33N 46°54' W 124°06'0 0.0
2016-May-27 04:33N 46°54' W 124°06'0 0.0
2016-May-27 03:33N 46°54' W 124°06'0 0.0
2016-May-27 02:31N 46°54' W 124°06'0 0.0
2016-May-27 01:33N 46°54' W 124°06'0 0.0
2016-May-27 00:33N 46°54' W 124°06'0 0.0
2016-May-26 23:33N 46°54' W 124°06'0 0.0
2016-May-26 22:33N 46°54' W 124°06'0 0.0
2016-May-26 21:33N 46°54' W 124°06'0 0.0
2016-May-26 20:33N 46°54' W 124°06'0 0.0
2016-May-26 19:32N 46°54' W 124°06'0 0.0
2016-May-26 18:34N 46°54' W 124°06'0 0.0
2016-May-26 17:32N 46°54' W 124°06'0 0.0
2016-May-26 16:33N 46°54' W 124°06'0 0.0
2016-May-26 15:33N 46°54' W 124°06'0 0.0
2016-May-26 14:33N 46°54' W 124°06'0 0.0
2016-May-26 13:33N 46°54' W 124°06'0 0.0
2016-May-26 12:33N 46°54' W 124°06'0 0.0
2016-May-26 11:33N 46°54' W 124°06'0 0.0
2016-May-26 10:33N 46°54' W 124°06'0 0.0
2016-May-26 09:33N 46°54' W 124°06'0 0.0
2016-May-26 08:33N 46°54' W 124°06'0 0.0
2016-May-26 07:33N 46°54' W 124°06'0 0.0
2016-May-26 06:33N 46°54' W 124°06'0 0.0
2016-May-26 05:33N 46°54' W 124°06'0 0.0
2016-May-26 04:33N 46°54' W 124°06'0 0.0
2016-May-26 03:33N 46°54' W 124°06'0 0.0
2016-May-26 02:33N 46°54' W 124°06'0 0.0
2016-May-26 01:33N 46°54' W 124°06'0 0.0
2016-May-26 00:33N 46°54' W 124°06'0 0.0
2016-May-25 23:33N 46°54' W 124°06'0 0.0
2016-May-25 22:33N 46°54' W 124°06'0 0.0
2016-May-25 21:33N 46°54' W 124°06'0 0.0
2016-May-25 20:33N 46°54' W 124°06'0 0.0
2016-May-25 19:33N 46°54' W 124°06'0 0.0
2016-May-25 18:33N 46°54' W 124°06'0 0.0
2016-May-25 17:33N 46°54' W 124°06'0 0.0
2016-May-25 16:33N 46°54' W 124°06'0 0.0
2016-May-25 15:33N 46°54' W 124°06'0 0.0
2016-May-25 14:33N 46°54' W 124°06'0 0.0
2016-May-25 13:33N 46°54' W 124°06'0 0.0
2016-May-25 12:33N 46°54' W 124°06'0 0.0
2016-May-25 11:33N 46°54' W 124°06'0 0.0
2016-May-25 10:33N 46°54' W 124°06'0 0.0
2016-May-25 09:33N 46°54' W 124°06'0 0.0
2016-May-25 08:33N 46°54' W 124°06'0 0.0
2016-May-25 07:33N 46°54' W 124°06'0 0.0
2016-May-25 06:33N 46°54' W 124°06'0 0.0
2016-May-25 05:33N 46°54' W 124°06'0 0.0
2016-May-25 04:33N 46°54' W 124°06'0 0.0
2016-May-25 03:33N 46°54' W 124°06'0 0.0
2016-May-25 02:33N 46°54' W 124°06'0 0.0
2016-May-25 01:33N 46°54' W 124°06'0 0.0
2016-May-25 00:33N 46°54' W 124°06'0 0.0
2016-May-24 23:33N 46°54' W 124°06'0 0.0
2016-May-24 22:33N 46°54' W 124°06'0 0.0
2016-May-24 18:33N 46°54' W 124°06'0 0.0
2016-May-24 17:33N 46°54' W 124°06'0 0.0
2016-May-24 16:33N 46°54' W 124°06'0 0.0
2016-May-24 15:33N 46°54' W 124°06'0 0.0
2016-May-24 14:33N 46°54' W 124°06'0 0.0
2016-May-24 13:33N 46°54' W 124°06'0 0.0
2016-May-24 12:33N 46°54' W 124°06'0 0.0
2016-May-24 11:34N 46°54' W 124°06'0 0.2
2016-May-24 10:33N 46°55' W 124°06'3 3.5
2016-May-24 09:33N 46°55' W 124°12'1 0.1
2016-May-23 19:18N 46°56' W 124°11'0 0.0
2016-May-23 15:15N 46°56' W 124°11'0 0.0
2016-May-23 14:30N 46°56' W 124°11'0 0.0
2016-May-23 11:09N 46°56' W 124°11'0 0.0
2016-May-23 10:33N 46°56' W 124°11'0 0.0
2016-May-23 09:33N 46°56' W 124°11'3 2.6
2016-May-23 08:33N 46°56' W 124°14'7 6.8
2016-May-23 07:34N 46°55' W 124°24'6 6.2
2016-May-23 06:33N 46°55' W 124°33'7 7.0
2016-May-23 05:33N 46°55' W 124°44'7 6.8
2016-May-23 04:33N 46°55' W 124°54'2 1.7
2016-May-23 03:29N 46°53' W 124°56'5 2.7
2016-May-23 01:33N 46°48' W 124°54'2 2.0
2016-May-23 00:33N 46°50' W 124°55'3 2.8
2016-May-22 23:33N 46°53' W 124°56'2 2.5
2016-May-22 22:33N 46°55' W 124°56'4 3.5
2016-May-22 21:32N 46°52' W 124°55'2 1.9
2016-May-22 20:27N 46°50' W 124°55'2 2.6
2016-May-22 19:33N 46°48' W 124°54'3 2.6
2016-May-22 18:33N 46°46' W 124°52'1 0.9
2016-May-22 17:33N 46°46' W 124°53'3 2.8
2016-May-22 16:33N 46°49' W 124°54'3 2.7
2016-May-22 15:33N 46°51' W 124°55'3 3.0
2016-May-22 14:33N 46°54' W 124°56'4 3.9
2016-May-22 13:33N 46°50' W 124°55'8 7.5
2016-May-22 12:33N 46°44' W 124°48'0 0.0
2016-May-22 11:34N 46°44' W 124°48'7 7.3
2016-May-22 10:33N 46°46' W 124°38'8 7.9
2016-May-22 09:33N 46°49' W 124°27'8 7.9
2016-May-22 08:33N 46°53' W 124°17'7 7.5
2016-May-22 07:33N 46°55' W 124°06'0 0.3
2016-May-22 06:33N 46°54' W 124°06'0 0.0
2016-May-22 05:33N 46°54' W 124°06'0 0.0
2016-May-22 04:33N 46°54' W 124°06'0 0.0
2016-May-22 03:33N 46°54' W 124°06'0 0.0
2016-May-22 02:33N 46°54' W 124°06'0 0.0
2016-May-22 01:33N 46°54' W 124°06'0 0.0
2016-May-22 00:33N 46°54' W 124°06'0 0.0
2016-May-21 23:33N 46°54' W 124°06'0 0.0
2016-May-21 22:33N 46°54' W 124°06'0 0.0
2016-May-21 21:33N 46°54' W 124°06'0 0.0
2016-May-21 20:33N 46°54' W 124°06'0 0.0
2016-May-21 19:33N 46°54' W 124°06'0 0.0
2016-May-21 18:28N 46°54' W 124°06'0 0.0
2016-May-21 17:33N 46°54' W 124°06'0 0.0
2016-May-21 16:33N 46°54' W 124°06'0 0.0
2016-May-21 15:33N 46°54' W 124°06'0 0.0
2016-May-21 14:33N 46°54' W 124°06'0 0.0
2016-May-21 13:33N 46°54' W 124°06'0 0.0
2016-May-21 12:33N 46°54' W 124°06'0 0.0
2016-May-21 11:33N 46°54' W 124°06'0 0.0
2016-May-21 10:33N 46°54' W 124°06'0 0.0
2016-May-21 09:33N 46°54' W 124°06'0 0.0
2016-May-21 08:33N 46°54' W 124°06'0 0.0
2016-May-21 07:33N 46°54' W 124°06'0 0.0
2016-May-21 06:33N 46°54' W 124°06'0 0.0
2016-May-21 05:29N 46°54' W 124°06'0 0.0
2016-May-21 04:33N 46°54' W 124°06'0 0.0
2016-May-21 03:33N 46°54' W 124°06'0 0.0
2016-May-21 02:33N 46°54' W 124°06'0 0.0
2016-May-21 01:33N 46°54' W 124°06'0 0.0
2016-May-21 00:33N 46°54' W 124°06'0 0.0
2016-May-20 23:33N 46°54' W 124°06'0 0.0
2016-May-20 22:33N 46°54' W 124°06'0 0.0
2016-May-20 21:33N 46°54' W 124°06'0 0.0
2016-May-20 16:33N 46°54' W 124°06'0 0.0
2016-May-20 15:33N 46°54' W 124°06'0 0.0
2016-May-20 14:33N 46°54' W 124°06'0 0.0
2016-May-20 13:33N 46°54' W 124°06'0 0.0
2016-May-20 12:33N 46°54' W 124°06'0 0.0
2016-May-20 11:33N 46°54' W 124°06'0 0.0
2016-May-20 10:33N 46°54' W 124°06'0 0.0
2016-May-20 09:33N 46°54' W 124°06'0 0.0
2016-May-20 08:33N 46°54' W 124°06'0 0.0
2016-May-20 07:33N 46°54' W 124°06'0 0.0
2016-May-20 06:34N 46°54' W 124°06'0 0.0
2016-May-20 05:33N 46°54' W 124°06'0 0.0
2016-May-20 04:33N 46°54' W 124°06'0 0.0
2016-May-20 03:33N 46°54' W 124°06'0 0.0
2016-May-20 02:31N 46°54' W 124°06'0 0.0
2016-May-20 01:33N 46°54' W 124°06'0 0.0
2016-May-20 00:33N 46°54' W 124°06'0 0.0
2016-May-19 23:33N 46°54' W 124°06'0 0.0
2016-May-19 13:33N 46°54' W 124°06'0 0.0
2016-May-19 12:33N 46°54' W 124°06'0 0.0
2016-May-19 11:33N 46°54' W 124°06'0 0.0
2016-May-19 10:33N 46°54' W 124°06'0 0.0
2016-May-19 09:33N 46°54' W 124°06'0 0.0
2016-May-19 08:33N 46°54' W 124°06'0 0.0
2016-May-19 07:33N 46°54' W 124°06'0 0.0
2016-May-19 06:33N 46°54' W 124°06'0 0.0
2016-May-19 05:34N 46°54' W 124°06'0 0.0
2016-May-19 04:33N 46°54' W 124°06'0 0.0
2016-May-19 03:34N 46°54' W 124°06'0 0.0
2016-May-19 02:33N 46°54' W 124°06'0 0.0
2016-May-19 01:33N 46°54' W 124°06'0 0.0
2016-May-19 00:18N 46°54' W 124°06'0 0.0
2016-May-18 23:33N 46°54' W 124°06'0 0.0
2016-May-18 22:33N 46°54' W 124°06'0 0.0
2016-May-18 21:33N 46°54' W 124°06'0 0.0
2016-May-18 20:33N 46°54' W 124°06'0 0.0
2016-May-18 19:33N 46°54' W 124°06'0 0.2
2016-May-18 18:33N 46°55' W 124°07'0 0.0
2016-May-18 17:33N 46°55' W 124°07'0 0.2
2016-May-18 16:33N 46°54' W 124°06'0 0.0
2016-May-18 15:33N 46°54' W 124°06'0 0.0
2016-May-18 14:33N 46°54' W 124°06'0 0.0
2016-May-18 13:33N 46°54' W 124°06'0 0.0
2016-May-18 12:33N 46°54' W 124°06'0 0.0
2016-May-18 11:33N 46°54' W 124°06'0 0.0
2016-May-18 10:33N 46°54' W 124°06'0 0.0
2016-May-18 09:33N 46°54' W 124°06'0 0.0
2016-May-18 08:32N 46°54' W 124°06'0 0.0
2016-May-18 07:33N 46°54' W 124°06'0 0.0
2016-May-18 06:33N 46°54' W 124°06'0 0.0
2016-May-18 05:33N 46°54' W 124°06'0 0.0
2016-May-18 04:33N 46°54' W 124°06'0 0.0
2016-May-18 03:33N 46°54' W 124°06'0 0.0
2016-May-18 02:33N 46°54' W 124°06'0 0.0
2016-May-18 01:33N 46°54' W 124°06'0 0.0
2016-May-18 00:33N 46°54' W 124°06'0 0.0
2016-May-17 23:04N 46°54' W 124°06'0 0.0
2016-May-17 18:24N 46°54' W 124°06'0 0.1
2016-May-17 17:33N 46°54' W 124°06'0 0.0
2016-May-17 16:33N 46°54' W 124°06'0 0.0
2016-May-17 15:33N 46°54' W 124°06'0 0.0
2016-May-17 14:33N 46°54' W 124°06'0 0.0
2016-May-17 13:33N 46°54' W 124°06'0 0.0
2016-May-17 12:33N 46°54' W 124°06'0 0.0
2016-May-17 11:33N 46°54' W 124°06'0 0.0
2016-May-17 10:33N 46°54' W 124°06'  

Dump ship's entire track history